Terminal Aerodrome Forecast
Issued by NWS Cleveland, OH

Home | Current Version | Previous Version | Graphics & Text | Print | Product List | Glossary On
Versions: 1 2 3 4 5 6 7 8 9 10 11 12 13 14 15 16 17 18 19 20 21 22 23
730
FTUS41 KCLE 281600 AAA
TAFTOL
TAF AMD
KTOL 281600Z 2816/2912 09005KT P6SM BKN015
     FM281800 20010KT P6SM VCTS BKN035CB BKN050
     FM282200 22013KT P6SM VCTS BKN035CB BKN050
      TEMPO 2822/2901 3SM -TSRA BR BKN035CB
     FM290100 26010KT P6SM SCT015 BKN150=

USA.gov is the U.S. government's official web portal to all federal, state and local government web resources and services.